sensor_id;sensor_type;location;lat;lon;timestamp;pressure;altitude;pressure_sealevel;temperature;humidity
40850;BME280;26571;41.610;25.380;2024-01-11T00:02:00;99505.56;;;-3.56;nan
40850;BME280;26571;41.610;25.380;2024-01-11T00:04:25;99501.50;;;-3.64;nan
40850;BME280;26571;41.610;25.380;2024-01-11T00:06:51;99482.72;;;-3.92;nan
40850;BME280;26571;41.610;25.380;2024-01-11T00:09:17;99492.69;;;-3.56;nan
40850;BME280;26571;41.610;25.380;2024-01-11T00:11:42;99493.63;;;-3.59;nan
40850;BME280;26571;41.610;25.380;2024-01-11T00:14:08;99479.44;;;-3.71;nan
40850;BME280;26571;41.610;25.380;2024-01-11T00:16:33;99487.63;;;-3.59;nan
40850;BME280;26571;41.610;25.380;2024-01-11T00:19:00;99490.13;;;-3.56;nan
40850;BME280;26571;41.610;25.380;2024-01-11T00:21:25;99489.53;;;-3.65;nan
40850;BME280;26571;41.610;25.380;2024-01-11T00:23:51;99489.44;;;-3.61;nan
40850;BME280;26571;41.610;25.380;2024-01-11T00:26:16;99479.06;;;-3.60;nan
40850;BME280;26571;41.610;25.380;2024-01-11T00:28:41;99478.94;;;-3.55;nan
40850;BME280;26571;41.610;25.380;2024-01-11T00:31:07;99473.03;;;-3.59;nan
40850;BME280;26571;41.610;25.380;2024-01-11T00:33:32;99442.75;;;-3.76;nan
40850;BME280;26571;41.610;25.380;2024-01-11T00:35:58;99465.59;;;-3.67;nan
40850;BME280;26571;41.610;25.380;2024-01-11T00:38:24;99471.97;;;-3.53;nan
40850;BME280;26571;41.610;25.380;2024-01-11T00:40:49;99472.78;;;-3.51;nan
40850;BME280;26571;41.610;25.380;2024-01-11T00:43:15;99474.78;;;-3.59;nan
40850;BME280;26571;41.610;25.380;2024-01-11T00:45:40;99432.69;;;-3.83;nan
40850;BME280;26571;41.610;25.380;2024-01-11T00:48:06;99463.91;;;-3.68;nan
40850;BME280;26571;41.610;25.380;2024-01-11T00:50:31;99457.91;;;-3.68;nan
40850;BME280;26571;41.610;25.380;2024-01-11T00:52:57;99459.63;;;-3.69;nan
40850;BME280;26571;41.610;25.380;2024-01-11T00:55:22;99451.91;;;-3.69;nan
40850;BME280;26571;41.610;25.380;2024-01-11T00:57:49;99452.66;;;-3.65;nan
40850;BME280;26571;41.610;25.380;2024-01-11T01:00:15;99408.56;;;-3.79;nan
40850;BME280;26571;41.610;25.380;2024-01-11T01:02:41;99418.22;;;-3.86;nan
40850;BME280;26571;41.610;25.380;2024-01-11T01:05:07;99438.28;;;-3.71;nan
40850;BME280;26571;41.610;25.380;2024-01-11T01:07:33;99435.19;;;-3.80;nan
40850;BME280;26571;41.610;25.380;2024-01-11T01:09:58;99431.47;;;-3.98;nan
40850;BME280;26571;41.610;25.380;2024-01-11T01:12:24;99426.06;;;-4.16;nan
40850;BME280;26571;41.610;25.380;2024-01-11T01:14:52;99426.28;;;-4.22;nan
40850;BME280;26571;41.610;25.380;2024-01-11T01:17:18;99423.00;;;-4.27;nan
40850;BME280;26571;41.610;25.380;2024-01-11T01:19:44;99422.09;;;-4.26;nan
40850;BME280;26571;41.610;25.380;2024-01-11T01:22:09;99423.84;;;-4.26;nan
40850;BME280;26571;41.610;25.380;2024-01-11T01:24:35;99412.72;;;-4.27;nan
40850;BME280;26571;41.610;25.380;2024-01-11T01:27:00;99405.03;;;-4.28;nan
40850;BME280;26571;41.610;25.380;2024-01-11T01:29:26;99411.91;;;-4.29;nan
40850;BME280;26571;41.610;25.380;2024-01-11T01:31:52;99408.63;;;-4.32;nan
40850;BME280;26571;41.610;25.380;2024-01-11T01:34:18;99421.09;;;-4.48;nan
40850;BME280;26571;41.610;25.380;2024-01-11T01:36:44;99392.66;;;-4.42;nan
40850;BME280;26571;41.610;25.380;2024-01-11T01:39:09;99409.34;;;-4.55;nan
40850;BME280;26571;41.610;25.380;2024-01-11T01:41:35;99382.97;;;-4.60;nan
40850;BME280;26571;41.610;25.380;2024-01-11T01:44:00;99381.16;;;-4.58;nan
40850;BME280;26571;41.610;25.380;2024-01-11T01:46:27;99359.50;;;-4.78;nan
40850;BME280;26571;41.610;25.380;2024-01-11T01:48:54;99340.44;;;-4.97;nan
40850;BME280;26571;41.610;25.380;2024-01-11T01:51:21;99378.88;;;-4.68;nan
40850;BME280;26571;41.610;25.380;2024-01-11T01:53:48;99365.25;;;-4.70;nan
40850;BME280;26571;41.610;25.380;2024-01-11T01:56:14;99366.94;;;-4.69;nan
40850;BME280;26571;41.610;25.380;2024-01-11T01:58:41;99352.16;;;-4.88;nan
40850;BME280;26571;41.610;25.380;2024-01-11T02:01:08;99362.84;;;-4.74;nan
40850;BME280;26571;41.610;25.380;2024-01-11T02:03:35;99356.63;;;-4.67;nan
40850;BME280;26571;41.610;25.380;2024-01-11T02:06:01;99355.31;;;-4.54;nan
40850;BME280;26571;41.610;25.380;2024-01-11T02:08:28;99357.13;;;-4.56;nan
40850;BME280;26571;41.610;25.380;2024-01-11T02:10:54;99352.66;;;-4.51;nan
40850;BME280;26571;41.610;25.380;2024-01-11T02:13:20;99361.31;;;-4.53;nan
40850;BME280;26571;41.610;25.380;2024-01-11T02:15:46;99356.28;;;-4.56;nan
40850;BME280;26571;41.610;25.380;2024-01-11T02:18:11;99350.53;;;-4.64;nan
40850;BME280;26571;41.610;25.380;2024-01-11T02:20:37;99298.28;;;-4.90;nan
40850;BME280;26571;41.610;25.380;2024-01-11T02:23:08;99357.63;;;-4.73;nan
40850;BME280;26571;41.610;25.380;2024-01-11T02:25:37;99344.09;;;-4.78;nan
40850;BME280;26571;41.610;25.380;2024-01-11T02:28:03;99328.81;;;-4.81;nan
40850;BME280;26571;41.610;25.380;2024-01-11T02:30:28;99343.97;;;-4.73;nan
40850;BME280;26571;41.610;25.380;2024-01-11T02:32:54;99344.00;;;-4.75;nan
40850;BME280;26571;41.610;25.380;2024-01-11T02:35:21;99345.59;;;-4.71;nan
40850;BME280;26571;41.610;25.380;2024-01-11T02:37:47;99342.44;;;-4.79;nan
40850;BME280;26571;41.610;25.380;2024-01-11T02:40:13;99339.03;;;-4.79;nan
40850;BME280;26571;41.610;25.380;2024-01-11T02:42:40;99333.81;;;-4.78;nan
40850;BME280;26571;41.610;25.380;2024-01-11T02:45:06;99328.13;;;-4.87;nan
40850;BME280;26571;41.610;25.380;2024-01-11T02:47:32;99307.38;;;-5.08;nan
40850;BME280;26571;41.610;25.380;2024-01-11T02:49:57;99323.06;;;-4.89;nan
40850;BME280;26571;41.610;25.380;2024-01-11T02:52:23;99331.03;;;-4.97;nan
40850;BME280;26571;41.610;25.380;2024-01-11T02:54:49;99332.84;;;-5.00;nan
40850;BME280;26571;41.610;25.380;2024-01-11T02:57:14;99330.47;;;-5.08;nan
40850;BME280;26571;41.610;25.380;2024-01-11T02:59:41;99330.63;;;-5.12;nan
40850;BME280;26571;41.610;25.380;2024-01-11T03:02:07;99312.06;;;-5.21;nan
40850;BME280;26571;41.610;25.380;2024-01-11T03:04:32;99330.47;;;-5.08;nan
40850;BME280;26571;41.610;25.380;2024-01-11T03:06:58;99329.56;;;-5.05;nan
40850;BME280;26571;41.610;25.380;2024-01-11T03:09:23;99325.91;;;-4.98;nan
40850;BME280;26571;41.610;25.380;2024-01-11T03:11:49;99333.44;;;-4.92;nan
40850;BME280;26571;41.610;25.380;2024-01-11T03:14:14;99322.22;;;-4.89;nan
40850;BME280;26571;41.610;25.380;2024-01-11T03:16:40;99321.53;;;-4.95;nan
40850;BME280;26571;41.610;25.380;2024-01-11T03:19:06;99282.31;;;-5.26;nan
40850;BME280;26571;41.610;25.380;2024-01-11T03:21:32;99317.84;;;-5.14;nan
40850;BME280;26571;41.610;25.380;2024-01-11T03:23:57;99320.06;;;-5.03;nan
40850;BME280;26571;41.610;25.380;2024-01-11T03:26:25;99323.19;;;-4.94;nan
40850;BME280;26571;41.610;25.380;2024-01-11T03:28:50;99264.66;;;-5.37;nan
40850;BME280;26571;41.610;25.380;2024-01-11T03:31:16;99304.44;;;-4.96;nan
40850;BME280;26571;41.610;25.380;2024-01-11T03:33:41;99303.69;;;-4.99;nan
40850;BME280;26571;41.610;25.380;2024-01-11T03:36:10;99318.56;;;-4.82;nan
40850;BME280;26571;41.610;25.380;2024-01-11T03:38:36;99301.03;;;-4.96;nan
40850;BME280;26571;41.610;25.380;2024-01-11T03:41:02;99305.19;;;-4.92;nan
40850;BME280;26571;41.610;25.380;2024-01-11T03:43:32;99305.09;;;-4.89;nan
40850;BME280;26571;41.610;25.380;2024-01-11T03:45:58;99297.25;;;-4.84;nan
40850;BME280;26571;41.610;25.380;2024-01-11T03:48:23;99295.41;;;-4.81;nan
40850;BME280;26571;41.610;25.380;2024-01-11T03:50:49;99288.50;;;-5.05;nan
40850;BME280;26571;41.610;25.380;2024-01-11T03:53:14;99295.63;;;-4.87;nan
40850;BME280;26571;41.610;25.380;2024-01-11T03:55:40;99300.78;;;-4.88;nan
40850;BME280;26571;41.610;25.380;2024-01-11T03:58:05;99298.28;;;-4.90;nan
40850;BME280;26571;41.610;25.380;2024-01-11T04:00:30;99300.84;;;-4.90;nan
40850;BME280;26571;41.610;25.380;2024-01-11T04:02:58;99305.19;;;-4.92;nan
40850;BME280;26571;41.610;25.380;2024-01-11T04:05:23;99315.75;;;-5.01;nan
40850;BME280;26571;41.610;25.380;2024-01-11T04:07:49;99282.88;;;-5.18;nan
40850;BME280;26571;41.610;25.380;2024-01-11T04:10:17;99305.56;;;-5.04;nan
40850;BME280;26571;41.610;25.380;2024-01-11T04:12:43;99319.25;;;-5.04;nan
40850;BME280;26571;41.610;25.380;2024-01-11T04:15:11;99298.47;;;-4.96;nan
40850;BME280;26571;41.610;25.380;2024-01-11T04:17:38;99298.47;;;-4.96;nan
40850;BME280;26571;41.610;25.380;2024-01-11T04:20:04;99308.06;;;-5.03;nan
40850;BME280;26571;41.610;25.380;2024-01-11T04:22:29;99303.00;;;-5.04;nan
40850;BME280;26571;41.610;25.380;2024-01-11T04:24:55;99252.69;;;-5.36;nan
40850;BME280;26571;41.610;25.380;2024-01-11T04:27:20;99141.75;;;-5.99;nan
40850;BME280;26571;41.610;25.380;2024-01-11T04:29:46;99302.78;;;-4.97;nan
40850;BME280;26571;41.610;25.380;2024-01-11T04:32:11;99163.69;;;-5.90;nan
40850;BME280;26571;41.610;25.380;2024-01-11T04:34:37;99307.53;;;-5.12;nan
40850;BME280;26571;41.610;25.380;2024-01-11T04:37:03;99306.69;;;-5.13;nan
40850;BME280;26571;41.610;25.380;2024-01-11T04:39:28;99301.66;;;-5.16;nan
40850;BME280;26571;41.610;25.380;2024-01-11T04:41:54;99300.44;;;-5.04;nan
40850;BME280;26571;41.610;25.380;2024-01-11T04:44:19;99258.44;;;-5.30;nan
40850;BME280;26571;41.610;25.380;2024-01-11T04:46:45;99303.97;;;-5.08;nan
40850;BME280;26571;41.610;25.380;2024-01-11T04:49:10;99297.91;;;-5.06;nan
40850;BME280;26571;41.610;25.380;2024-01-11T04:51:36;99300.34;;;-5.01;nan
40850;BME280;26571;41.610;25.380;2024-01-11T04:54:01;99300.91;;;-4.91;nan
40850;BME280;26571;41.610;25.380;2024-01-11T04:56:26;99292.53;;;-4.98;nan
40850;BME280;26571;41.610;25.380;2024-01-11T04:58:54;99297.59;;;-4.95;nan
40850;BME280;26571;41.610;25.380;2024-01-11T05:01:20;99303.63;;;-4.96;nan
40850;BME280;26571;41.610;25.380;2024-01-11T05:03:47;99257.97;;;-5.14;nan
40850;BME280;26571;41.610;25.380;2024-01-11T05:06:20;99295.75;;;-4.91;nan
40850;BME280;26571;41.610;25.380;2024-01-11T05:08:50;99289.09;;;-4.97;nan
40850;BME280;26571;41.610;25.380;2024-01-11T05:11:20;99293.13;;;-4.90;nan
40850;BME280;26571;41.610;25.380;2024-01-11T05:13:46;99268.84;;;-5.06;nan
40850;BME280;26571;41.610;25.380;2024-01-11T05:16:31;99284.25;;;-5.06;nan
40850;BME280;26571;41.610;25.380;2024-01-11T05:18:57;99289.66;;;-5.15;nan
40850;BME280;26571;41.610;25.380;2024-01-11T05:21:24;99292.78;;;-5.34;nan
40850;BME280;26571;41.610;25.380;2024-01-11T05:23:49;99284.38;;;-5.39;nan
40850;BME280;26571;41.610;25.380;2024-01-11T05:26:17;99288.47;;;-5.32;nan
40850;BME280;26571;41.610;25.380;2024-01-11T05:28:42;99280.06;;;-5.37;nan
40850;BME280;26571;41.610;25.380;2024-01-11T05:31:13;99277.06;;;-5.51;nan
40850;BME280;26571;41.610;25.380;2024-01-11T05:33:40;99269.63;;;-5.60;nan
40850;BME280;26571;41.610;25.380;2024-01-11T05:36:06;99263.63;;;-5.59;nan
40850;BME280;26571;41.610;25.380;2024-01-11T05:38:32;99267.03;;;-5.59;nan
40850;BME280;26571;41.610;25.380;2024-01-11T05:40:58;99265.22;;;-5.55;nan
40850;BME280;26571;41.610;25.380;2024-01-11T05:43:23;99262.00;;;-5.62;nan
40850;BME280;26571;41.610;25.380;2024-01-11T05:45:49;99265.16;;;-5.54;nan
40850;BME280;26571;41.610;25.380;2024-01-11T05:48:16;99270.94;;;-5.47;nan
40850;BME280;26571;41.610;25.380;2024-01-11T05:50:42;99270.06;;;-5.46;nan
40850;BME280;26571;41.610;25.380;2024-01-11T05:53:08;99265.72;;;-5.44;nan
40850;BME280;26571;41.610;25.380;2024-01-11T05:55:33;99262.53;;;-5.52;nan
40850;BME280;26571;41.610;25.380;2024-01-11T05:57:59;99264.97;;;-5.48;nan
40850;BME280;26571;41.610;25.380;2024-01-11T06:00:24;99256.63;;;-5.54;nan
40850;BME280;26571;41.610;25.380;2024-01-11T06:02:50;99273.47;;;-5.46;nan
40850;BME280;26571;41.610;25.380;2024-01-11T06:05:16;99276.94;;;-5.47;nan
40850;BME280;26571;41.610;25.380;2024-01-11T06:07:41;99279.63;;;-5.51;nan
40850;BME280;26571;41.610;25.380;2024-01-11T06:10:07;99264.38;;;-5.56;nan
40850;BME280;26571;41.610;25.380;2024-01-11T06:12:34;99273.22;;;-5.36;nan
40850;BME280;26571;41.610;25.380;2024-01-11T06:15:00;99278.09;;;-5.29;nan
40850;BME280;26571;41.610;25.380;2024-01-11T06:17:26;99269.63;;;-5.04;nan
40850;BME280;26571;41.610;25.380;2024-01-11T06:19:51;99265.75;;;-4.64;nan
40850;BME280;26571;41.610;25.380;2024-01-11T06:22:17;99276.72;;;-4.09;nan
40850;BME280;26571;41.610;25.380;2024-01-11T06:24:43;99268.13;;;-3.38;nan
40850;BME280;26571;41.610;25.380;2024-01-11T06:27:08;99271.69;;;-2.76;nan
40850;BME280;26571;41.610;25.380;2024-01-11T06:29:34;99265.19;;;-2.03;nan
40850;BME280;26571;41.610;25.380;2024-01-11T06:31:59;99269.09;;;-0.83;nan
40850;BME280;26571;41.610;25.380;2024-01-11T06:34:25;99257.41;;;0.60;nan
40850;BME280;26571;41.610;25.380;2024-01-11T06:36:50;99122.38;;;0.66;nan
40850;BME280;26571;41.610;25.380;2024-01-11T06:39:16;99250.41;;;2.68;nan
40850;BME280;26571;41.610;25.380;2024-01-11T06:41:42;99239.97;;;3.61;nan
40850;BME280;26571;41.610;25.380;2024-01-11T06:44:07;99239.97;;;4.75;nan
40850;BME280;26571;41.610;25.380;2024-01-11T06:46:33;99235.31;;;5.50;nan
40850;BME280;26571;41.610;25.380;2024-01-11T06:48:58;99239.81;;;6.06;nan
40850;BME280;26571;41.610;25.380;2024-01-11T06:51:24;99234.13;;;6.57;nan
40850;BME280;26571;41.610;25.380;2024-01-11T06:53:49;99242.41;;;7.16;nan
40850;BME280;26571;41.610;25.380;2024-01-11T06:56:16;99235.88;;;7.64;nan
40850;BME280;26571;41.610;25.380;2024-01-11T06:58:54;99237.81;;;8.13;nan
40850;BME280;26571;41.610;25.380;2024-01-11T07:01:22;99232.69;;;8.83;nan
40850;BME280;26571;41.610;25.380;2024-01-11T07:03:48;99202.19;;;9.20;nan
40850;BME280;26571;41.610;25.380;2024-01-11T07:06:15;99230.50;;;9.75;nan
40850;BME280;26571;41.610;25.380;2024-01-11T07:08:40;99231.88;;;10.16;nan
40850;BME280;26571;41.610;25.380;2024-01-11T07:11:15;99218.88;;;10.24;nan
40850;BME280;26571;41.610;25.380;2024-01-11T07:13:41;99218.09;;;10.04;nan
40850;BME280;26571;41.610;25.380;2024-01-11T07:16:07;99220.78;;;9.75;nan
40850;BME280;26571;41.610;25.380;2024-01-11T07:18:33;99221.22;;;9.61;nan
40850;BME280;26571;41.610;25.380;2024-01-11T07:20:59;99220.97;;;9.45;nan
40850;BME280;26571;41.610;25.380;2024-01-11T07:23:25;99199.38;;;9.51;nan
40850;BME280;26571;41.610;25.380;2024-01-11T07:25:50;99217.00;;;9.97;nan
40850;BME280;26571;41.610;25.380;2024-01-11T07:28:16;99217.44;;;10.40;nan
40850;BME280;26571;41.610;25.380;2024-01-11T07:30:43;99215.56;;;10.50;nan
40850;BME280;26571;41.610;25.380;2024-01-11T07:33:08;99211.88;;;9.96;nan
40850;BME280;26571;41.610;25.380;2024-01-11T07:35:34;99208.38;;;9.39;nan
40850;BME280;26571;41.610;25.380;2024-01-11T07:38:00;99217.47;;;9.73;nan
40850;BME280;26571;41.610;25.380;2024-01-11T07:40:26;99212.53;;;9.41;nan
40850;BME280;26571;41.610;25.380;2024-01-11T07:42:51;99208.72;;;9.82;nan
40850;BME280;26571;41.610;25.380;2024-01-11T07:45:17;99211.97;;;10.04;nan
40850;BME280;26571;41.610;25.380;2024-01-11T07:47:42;99209.88;;;10.17;nan
40850;BME280;26571;41.610;25.380;2024-01-11T07:50:09;99200.25;;;10.63;nan
40850;BME280;26571;41.610;25.380;2024-01-11T07:52:37;99203.34;;;10.76;nan
40850;BME280;26571;41.610;25.380;2024-01-11T07:55:04;99196.06;;;10.43;nan
40850;BME280;26571;41.610;25.380;2024-01-11T07:57:37;99186.94;;;9.53;nan
40850;BME280;26571;41.610;25.380;2024-01-11T08:00:04;99179.72;;;8.58;nan
40850;BME280;26571;41.610;25.380;2024-01-11T08:02:32;99166.22;;;8.22;nan
40850;BME280;26571;41.610;25.380;2024-01-11T08:04:57;99185.69;;;7.68;nan
40850;BME280;26571;41.610;25.380;2024-01-11T08:07:27;99191.94;;;7.14;nan
40850;BME280;26571;41.610;25.380;2024-01-11T08:09:54;99181.44;;;7.46;nan
40850;BME280;26571;41.610;25.380;2024-01-11T08:12:19;99176.97;;;7.16;nan
40850;BME280;26571;41.610;25.380;2024-01-11T08:14:45;99173.09;;;6.56;nan
40850;BME280;26571;41.610;25.380;2024-01-11T08:17:13;99168.41;;;6.28;nan
40850;BME280;26571;41.610;25.380;2024-01-11T08:19:41;99158.53;;;5.53;nan
40850;BME280;26571;41.610;25.380;2024-01-11T08:22:10;99126.41;;;4.82;nan
40850;BME280;26571;41.610;25.380;2024-01-11T08:24:36;99182.53;;;5.23;nan
40850;BME280;26571;41.610;25.380;2024-01-11T08:27:02;99132.91;;;4.28;nan
40850;BME280;26571;41.610;25.380;2024-01-11T08:29:27;99161.28;;;4.07;nan
40850;BME280;26571;41.610;25.380;2024-01-11T08:31:53;99147.47;;;3.81;nan
40850;BME280;26571;41.610;25.380;2024-01-11T08:34:22;99149.41;;;4.16;nan
40850;BME280;26571;41.610;25.380;2024-01-11T08:36:48;99150.91;;;3.82;nan
40850;BME280;26571;41.610;25.380;2024-01-11T08:39:14;99151.31;;;3.12;nan
40850;BME280;26571;41.610;25.380;2024-01-11T08:41:42;99143.09;;;2.66;nan
40850;BME280;26571;41.610;25.380;2024-01-11T08:44:08;99148.53;;;2.75;nan
40850;BME280;26571;41.610;25.380;2024-01-11T08:46:33;99148.44;;;2.50;nan
40850;BME280;26571;41.610;25.380;2024-01-11T08:49:00;99142.59;;;2.46;nan
40850;BME280;26571;41.610;25.380;2024-01-11T08:51:28;99059.88;;;1.99;nan
40850;BME280;26571;41.610;25.380;2024-01-11T08:53:54;99134.28;;;2.41;nan
40850;BME280;26571;41.610;25.380;2024-01-11T08:56:19;99112.72;;;2.66;nan
40850;BME280;26571;41.610;25.380;2024-01-11T08:58:45;99118.56;;;2.70;nan
40850;BME280;26571;41.610;25.380;2024-01-11T09:01:11;99119.38;;;3.23;nan
40850;BME280;26571;41.610;25.380;2024-01-11T09:03:37;99114.50;;;3.31;nan
40850;BME280;26571;41.610;25.380;2024-01-11T09:06:03;99100.97;;;3.51;nan
40850;BME280;26571;41.610;25.380;2024-01-11T09:08:29;99105.31;;;3.76;nan
40850;BME280;26571;41.610;25.380;2024-01-11T09:10:55;99060.38;;;3.36;nan
40850;BME280;26571;41.610;25.380;2024-01-11T09:13:21;99091.38;;;3.52;nan
40850;BME280;26571;41.610;25.380;2024-01-11T09:15:46;99086.81;;;3.30;nan
40850;BME280;26571;41.610;25.380;2024-01-11T09:18:12;98994.84;;;2.80;nan
40850;BME280;26571;41.610;25.380;2024-01-11T09:20:37;99077.63;;;3.62;nan
40850;BME280;26571;41.610;25.380;2024-01-11T09:23:03;99071.13;;;3.94;nan
40850;BME280;26571;41.610;25.380;2024-01-11T09:25:31;99065.88;;;4.65;nan
40850;BME280;26571;41.610;25.380;2024-01-11T09:27:57;99055.47;;;5.23;nan
40850;BME280;26571;41.610;25.380;2024-01-11T09:30:23;99051.56;;;5.51;nan
40850;BME280;26571;41.610;25.380;2024-01-11T09:32:48;99042.03;;;5.16;nan
40850;BME280;26571;41.610;25.380;2024-01-11T09:35:14;99041.13;;;5.29;nan
40850;BME280;26571;41.610;25.380;2024-01-11T09:37:40;99015.44;;;4.78;nan
40850;BME280;26571;41.610;25.380;2024-01-11T09:40:06;98912.31;;;4.27;nan
40850;BME280;26571;41.610;25.380;2024-01-11T09:42:39;99025.44;;;5.40;nan
40850;BME280;26571;41.610;25.380;2024-01-11T09:45:09;99024.03;;;5.47;nan
40850;BME280;26571;41.610;25.380;2024-01-11T09:47:36;99009.06;;;4.93;nan
40850;BME280;26571;41.610;25.380;2024-01-11T09:50:06;98995.53;;;5.22;nan
40850;BME280;26571;41.610;25.380;2024-01-11T09:52:32;99007.28;;;5.72;nan
40850;BME280;26571;41.610;25.380;2024-01-11T09:54:58;98971.94;;;5.12;nan
40850;BME280;26571;41.610;25.380;2024-01-11T09:57:28;99001.72;;;5.21;nan
40850;BME280;26571;41.610;25.380;2024-01-11T09:59:54;99003.59;;;5.41;nan
40850;BME280;26571;41.610;25.380;2024-01-11T10:02:22;98996.34;;;5.78;nan
40850;BME280;26571;41.610;25.380;2024-01-11T10:04:48;98993.16;;;5.63;nan
40850;BME280;26571;41.610;25.380;2024-01-11T10:07:14;98989.56;;;5.76;nan
40850;BME280;26571;41.610;25.380;2024-01-11T10:09:41;98980.41;;;5.81;nan
40850;BME280;26571;41.610;25.380;2024-01-11T10:12:08;98979.63;;;5.58;nan
40850;BME280;26571;41.610;25.380;2024-01-11T10:14:34;98970.66;;;5.17;nan
40850;BME280;26571;41.610;25.380;2024-01-11T10:16:59;98905.91;;;4.78;nan
40850;BME280;26571;41.610;25.380;2024-01-11T10:19:25;98967.78;;;5.09;nan
40850;BME280;26571;41.610;25.380;2024-01-11T10:21:51;98956.41;;;5.33;nan
40850;BME280;26571;41.610;25.380;2024-01-11T10:24:19;98953.06;;;5.31;nan
40850;BME280;26571;41.610;25.380;2024-01-11T10:26:51;98941.66;;;5.32;nan
40850;BME280;26571;41.610;25.380;2024-01-11T10:29:17;98940.28;;;5.28;nan
40850;BME280;26571;41.610;25.380;2024-01-11T10:31:43;98932.44;;;5.16;nan
40850;BME280;26571;41.610;25.380;2024-01-11T10:34:08;98935.38;;;5.45;nan
40850;BME280;26571;41.610;25.380;2024-01-11T10:36:34;98934.47;;;5.79;nan
40850;BME280;26571;41.610;25.380;2024-01-11T10:39:02;98929.97;;;5.69;nan
40850;BME280;26571;41.610;25.380;2024-01-11T10:41:32;98923.00;;;6.02;nan
40850;BME280;26571;41.610;25.380;2024-01-11T10:44:01;98902.56;;;6.28;nan
40850;BME280;26571;41.610;25.380;2024-01-11T10:46:28;98879.69;;;6.51;nan
40850;BME280;26571;41.610;25.380;2024-01-11T10:48:56;98897.19;;;6.81;nan
40850;BME280;26571;41.610;25.380;2024-01-11T10:51:25;98898.75;;;7.24;nan
40850;BME280;26571;41.610;25.380;2024-01-11T10:53:53;98895.19;;;7.35;nan
40850;BME280;26571;41.610;25.380;2024-01-11T10:56:20;98896.25;;;7.22;nan
40850;BME280;26571;41.610;25.380;2024-01-11T10:58:46;98888.38;;;7.13;nan
40850;BME280;26571;41.610;25.380;2024-01-11T11:01:13;98881.03;;;6.97;nan
40850;BME280;26571;41.610;25.380;2024-01-11T11:03:39;98879.38;;;7.06;nan
40850;BME280;26571;41.610;25.380;2024-01-11T11:06:08;98854.06;;;7.06;nan
40850;BME280;26571;41.610;25.380;2024-01-11T11:08:36;98858.22;;;7.18;nan
40850;BME280;26571;41.610;25.380;2024-01-11T11:11:03;98863.19;;;7.41;nan
40850;BME280;26571;41.610;25.380;2024-01-11T11:13:31;98848.81;;;7.16;nan
40850;BME280;26571;41.610;25.380;2024-01-11T11:15:57;98849.09;;;7.13;nan
40850;BME280;26571;41.610;25.380;2024-01-11T11:18:23;98854.31;;;7.03;nan
40850;BME280;26571;41.610;25.380;2024-01-11T11:20:50;98820.91;;;6.86;nan
40850;BME280;26571;41.610;25.380;2024-01-11T11:23:19;98841.41;;;6.81;nan
40850;BME280;26571;41.610;25.380;2024-01-11T11:25:46;98826.94;;;6.67;nan
40850;BME280;26571;41.610;25.380;2024-01-11T11:28:13;98789.03;;;6.31;nan
40850;BME280;26571;41.610;25.380;2024-01-11T11:30:41;98802.53;;;6.36;nan
40850;BME280;26571;41.610;25.380;2024-01-11T11:33:25;98814.94;;;6.64;nan
40850;BME280;26571;41.610;25.380;2024-01-11T11:35:56;98673.41;;;5.87;nan
40850;BME280;26571;41.610;25.380;2024-01-11T11:38:25;98806.81;;;6.67;nan
40850;BME280;26571;41.610;25.380;2024-01-11T11:40:52;98751.19;;;6.25;nan
40850;BME280;26571;41.610;25.380;2024-01-11T11:43:19;98794.25;;;6.31;nan
40850;BME280;26571;41.610;25.380;2024-01-11T11:45:47;98792.28;;;6.44;nan
40850;BME280;26571;41.610;25.380;2024-01-11T11:51:09;98758.59;;;6.60;nan
40850;BME280;26571;41.610;25.380;2024-01-11T11:53:40;98781.56;;;6.87;nan
40850;BME280;26571;41.610;25.380;2024-01-11T11:56:07;98765.56;;;7.00;nan
40850;BME280;26571;41.610;25.380;2024-01-11T11:58:34;98701.22;;;6.78;nan
40850;BME280;26571;41.610;25.380;2024-01-11T12:01:01;98732.25;;;7.02;nan
40850;BME280;26571;41.610;25.380;2024-01-11T12:03:32;98781.06;;;7.22;nan
40850;BME280;26571;41.610;25.380;2024-01-11T12:05:59;98757.06;;;7.17;nan
40850;BME280;26571;41.610;25.380;2024-01-11T12:08:24;98746.59;;;7.37;nan
40850;BME280;26571;41.610;25.380;2024-01-11T12:10:51;98739.69;;;7.36;nan
40850;BME280;26571;41.610;25.380;2024-01-11T12:13:17;98734.47;;;7.16;nan
40850;BME280;26571;41.610;25.380;2024-01-11T12:15:42;98723.56;;;7.21;nan
40850;BME280;26571;41.610;25.380;2024-01-11T12:18:08;98731.31;;;7.42;nan
40850;BME280;26571;41.610;25.380;2024-01-11T12:20:33;98727.00;;;7.50;nan
40850;BME280;26571;41.610;25.380;2024-01-11T12:22:59;98697.25;;;7.42;nan
40850;BME280;26571;41.610;25.380;2024-01-11T12:25:25;98720.25;;;7.67;nan
40850;BME280;26571;41.610;25.380;2024-01-11T12:27:51;98711.38;;;7.78;nan
40850;BME280;26571;41.610;25.380;2024-01-11T12:30:17;98691.13;;;7.70;nan
40850;BME280;26571;41.610;25.380;2024-01-11T12:32:43;98702.81;;;7.86;nan
40850;BME280;26571;41.610;25.380;2024-01-11T12:35:10;98677.69;;;7.46;nan
40850;BME280;26571;41.610;25.380;2024-01-11T12:37:36;98693.25;;;7.47;nan
40850;BME280;26571;41.610;25.380;2024-01-11T12:42:27;98695.47;;;7.42;nan
40850;BME280;26571;41.610;25.380;2024-01-11T12:44:53;98702.19;;;7.35;nan
40850;BME280;26571;41.610;25.380;2024-01-11T12:47:19;98677.41;;;7.10;nan
40850;BME280;26571;41.610;25.380;2024-01-11T12:52:19;98671.91;;;7.13;nan
40850;BME280;26571;41.610;25.380;2024-01-11T12:54:45;98668.72;;;7.10;nan
40850;BME280;26571;41.610;25.380;2024-01-11T12:57:19;98670.53;;;6.90;nan
40850;BME280;26571;41.610;25.380;2024-01-11T12:59:45;98664.75;;;6.67;nan
40850;BME280;26571;41.610;25.380;2024-01-11T13:02:11;98668.00;;;6.59;nan
40850;BME280;26571;41.610;25.380;2024-01-11T13:04:43;98659.50;;;6.57;nan
40850;BME280;26571;41.610;25.380;2024-01-11T13:07:10;98653.53;;;6.45;nan
40850;BME280;26571;41.610;25.380;2024-01-11T13:09:37;98683.66;;;6.40;nan
40850;BME280;26571;41.610;25.380;2024-01-11T13:12:03;98642.63;;;6.31;nan
40850;BME280;26571;41.610;25.380;2024-01-11T13:14:28;98636.47;;;6.32;nan
40850;BME280;26571;41.610;25.380;2024-01-11T13:16:54;98639.38;;;6.48;nan
40850;BME280;26571;41.610;25.380;2024-01-11T13:19:20;98633.31;;;6.47;nan